AirNav   Duncan Aviation - Near you to keep you flying
 
 1014 users online  

IL27 Sugar Hollow Airport
Lane, Illinois, USA

GOING TO LANE?


FAA INFORMATION EFFECTIVE 01 DECEMBER 2022

Location

FAA Identifier: IL27
Lat/Long: 40-07-48.0000N 088-49-54.0000W
40-07.800000N 088-49.900000W
40.1300000,-88.8316667
(estimated)
Elevation: 700 ft. / 213 m
From city: 1 mile NE of LANE, IL
Time zone: UTC -6 (UTC -5 during Daylight Saving Time)
Zip code: 61882

Airport Operations

Airport use: Private use. Permission required prior to landing
Activation date: 11/2016
Control tower: no
ARTCC: CHICAGO CENTER
FSS: SAINT LOUIS FLIGHT SERVICE STATION
Attendance: IRREG
Wind indicator: yes
Segmented circle: no

Airport Communications

WX ASOS at DEC (18 nm S): PHONE 217-429-0052

Nearby radio navigation aids

VOR radial/distance  VOR name  Freq  Var
BMIr165/21.5BLOOMINGTON VOR/DME108.2003E
AXCr360/23.6ADDERS VORTAC117.2003E
CMIr280/26.1CHAMPAIGN VORTAC110.0003E

 
NDB name  Hdg/Dist  Freq  Var  ID
ABRAHAM094/23.332900EAAA .- .- .-

Airport Services

Runway Information

Runway 9/27

Dimensions: 2100 x 100 ft. / 640 x 30 m
Surface: turf, in good condition
RUNWAY 9  RUNWAY 27
Traffic pattern: leftleft

Airport Ownership and Management from official FAA records

Ownership: Privately-owned
Owner: JONI & DAVID NEWBERG
16297 ST. HWY 10
CLINTON, IL 61727
Phone 217-519-2137
Manager: ANDREW NEWBERG
5158 BRITTANY LANE
CLINTON, IL 61727
Phone 217-202-0192

Airport Operational Statistics

Aircraft based on the field: 1
Single engine airplanes: 1
    

Additional Remarks

FOR CD CTC CHICAGO ARTCC AT 630-906-8921.

Instrument Procedures

There are no published instrument procedures at IL27.

Some nearby airports with instrument procedures:

KDEC - Decatur Airport (18 nm S)
KBMI - Central Illinois Regional Airport/Bloomington-Normal (21 nm N)
KAAA - Logan County Airport (23 nm W)
KCMI - University of Illinois/Willard Airport (26 nm E)
C16 - Frasca Field Airport (29 nm E)
 
Loc | Ops | Rwys | IFR | FBO | Links
Com | Nav | Svcs | Stats | Notes
Aerial photo
No photo
 
Airport distance calculator
Flying to Sugar Hollow Airport? Find the distance to fly.

From to IL27

Sunrise and sunset
Times for 04-Dec-2022
 Local
(UTC-6)
 Zulu
(UTC)
Morning civil twilight06:3212:32
Sunrise07:0213:02
Sunset16:2922:29
Evening civil twilight16:5922:59

Current date and time
Zulu (UTC)  05-Dec-2022 00:17:00
Local (UTC-6)  04-Dec-2022 18:17:00
 
METAR
KDEC 
18nm S 
042354Z 19009KT 10SM CLR 00/M06 A3013 RMK AO2 SLP213 T00001061 10050 21006 56014
KBMI 
21nm N 
042356Z 20007KT 10SM CLR M02/M07 A3010 RMK AO2 SLP204 T10221067 10044 21028 58008
KAAA 
23nm W 
042355Z AUTO 19004KT 10SM CLR 01/M05 A3012 RMK AO2 T00051051 10055 20005
KCMI 
27nm E 
042353Z 17008KT 10SM CLR M02/M07 A3013 RMK AO2 SLP212 T10171067 10044 21022 56015
KTIP 
33nm E 
042355Z AUTO 18006KT 10SM CLR M01/M06 A3012 RMK AO2 T10101064 10040 21015
TAF
KDEC 
18nm S 
042301Z 0423/0518 18006KT P6SM SCT250 FM050800 18006KT P6SM SCT120 BKN200 FM051400 19009KT P6SM BKN120
KBMI 
21nm N 
042300Z 0423/0518 20008KT P6SM SCT250 FM050900 19008KT P6SM SCT150 BKN250 FM051500 19012KT P6SM BKN150
NOTAMs
Click for the latest NOTAMs
NOTAMs are issued by the DoD/FAA and will open in a separate window not controlled by AirNav.

 

 
 

Would you like to see your business listed on this page?

 If your business provides an interesting product or service to pilots, flight crews, aircraft, or users of the Sugar Hollow Airport, you should consider listing it here.  To start the listing process, click on the button below
 
Add a business
 

Other Pages about Sugar Hollow Airport

Update a link
 
Copyright © AirNav, LLC. All rights reserved. Privacy Policy  Contact